createdAt,value
2022-10-22T00:00:22.777Z,100724.38
2022-10-22T00:00:53.199Z,100729.08
2022-10-22T00:01:23.645Z,100732.30
2022-10-22T00:01:54.067Z,100736.84
2022-10-22T00:02:25.032Z,100744.39
2022-10-22T00:02:55.448Z,100741.36
2022-10-22T00:03:25.826Z,100745.19
2022-10-22T00:03:56.262Z,100744.69
2022-10-22T00:04:27.625Z,100746.17
2022-10-22T00:05:00.601Z,100747.00
2022-10-22T00:05:31.031Z,100747.65
2022-10-22T00:06:01.467Z,100744.69
2022-10-22T00:06:31.895Z,100745.73
2022-10-22T00:07:02.315Z,100745.09
2022-10-22T00:07:32.741Z,100745.94
2022-10-22T00:08:03.174Z,100742.86
2022-10-22T00:08:33.701Z,100743.19
2022-10-22T00:09:04.183Z,100744.03
2022-10-22T00:09:34.583Z,100742.52
2022-10-22T00:10:05.016Z,100745.34
2022-10-22T00:10:35.426Z,100738.61
2022-10-22T00:11:05.847Z,100743.28
2022-10-22T00:11:36.270Z,100744.11
2022-10-22T00:12:06.708Z,100745.48
2022-10-22T00:12:37.130Z,100747.77
2022-10-22T00:13:07.895Z,100747.95
2022-10-22T00:13:38.369Z,100749.53
2022-10-22T00:14:08.757Z,100750.15
2022-10-22T00:14:39.197Z,100748.75
2022-10-22T00:15:09.622Z,100753.80
2022-10-22T00:15:40.051Z,100752.95
2022-10-22T00:16:10.478Z,100756.09
2022-10-22T00:16:40.901Z,100754.60
2022-10-22T00:17:11.800Z,100751.91
2022-10-22T00:17:42.670Z,100757.29
2022-10-22T00:18:13.205Z,100752.95
2022-10-22T00:18:43.629Z,100750.39
2022-10-22T00:19:14.067Z,100749.00
2022-10-22T00:19:44.488Z,100750.03
2022-10-22T00:20:14.911Z,100746.98
2022-10-22T00:20:45.336Z,100745.85
2022-10-22T00:21:15.792Z,100748.70
2022-10-22T00:21:46.233Z,100749.86
2022-10-22T00:22:16.655Z,100747.12
2022-10-22T00:22:47.139Z,100748.28
2022-10-22T00:23:17.547Z,100750.79
2022-10-22T00:23:47.967Z,100751.48
2022-10-22T00:24:18.427Z,100748.78
2022-10-22T00:24:48.854Z,100751.30
2022-10-22T00:25:19.289Z,100748.62
2022-10-22T00:25:49.712Z,100750.45
2022-10-22T00:26:20.147Z,100748.12
2022-10-22T00:26:50.575Z,100747.45
2022-10-22T00:27:20.997Z,100747.09
2022-10-22T00:27:51.424Z,100741.41
2022-10-22T00:28:21.842Z,100739.44
2022-10-22T00:28:52.283Z,100733.72
2022-10-22T00:29:22.702Z,100730.89
2022-10-22T00:29:53.146Z,100730.89
2022-10-22T00:30:23.569Z,100729.06
2022-10-22T00:30:53.996Z,100728.75
2022-10-22T00:31:24.416Z,100723.20
2022-10-22T00:32:26.191Z,100727.48
2022-10-22T00:32:56.628Z,100727.00
2022-10-22T00:33:27.057Z,100725.81
2022-10-22T00:33:57.482Z,100726.81
2022-10-22T00:34:27.914Z,100728.15
2022-10-22T00:34:58.335Z,100730.31
2022-10-22T00:35:28.757Z,100728.12
2022-10-22T00:35:59.188Z,100729.00
2022-10-22T00:36:29.609Z,100732.54
2022-10-22T00:37:00.037Z,100733.54
2022-10-22T00:37:30.460Z,100729.13
2022-10-22T00:38:00.883Z,100730.31
2022-10-22T00:38:31.316Z,100728.42
2022-10-22T00:39:01.734Z,100724.55
2022-10-22T00:39:32.198Z,100723.20
2022-10-22T00:40:02.625Z,100725.84
2022-10-22T00:40:33.046Z,100720.69
2022-10-22T00:41:03.474Z,100715.80
2022-10-22T00:41:33.892Z,100718.00
2022-10-22T00:42:04.314Z,100719.84
2022-10-22T00:42:34.737Z,100719.47
2022-10-22T00:43:05.161Z,100720.74
2022-10-22T00:43:35.578Z,100718.77
2022-10-22T00:44:06.022Z,100722.32
2022-10-22T00:44:36.442Z,100718.22
2022-10-22T00:45:06.862Z,100718.65
2022-10-22T00:45:37.285Z,100717.64
2022-10-22T00:46:08.047Z,100717.74
2022-10-22T00:46:38.922Z,100716.89
2022-10-22T00:47:09.345Z,100714.85
2022-10-22T00:47:39.768Z,100717.81
2022-10-22T00:48:10.190Z,100719.47
2022-10-22T00:48:40.617Z,100715.28
2022-10-22T00:49:11.066Z,100722.28
2022-10-22T00:49:41.502Z,100717.42
2022-10-22T00:50:11.921Z,100718.87
2022-10-22T00:50:42.342Z,100718.56
2022-10-22T00:51:12.764Z,100718.58
2022-10-22T00:51:43.186Z,100716.94
2022-10-22T00:52:13.620Z,100718.48
2022-10-22T00:52:44.031Z,100719.20
2022-10-22T00:53:14.466Z,100718.75
2022-10-22T00:53:44.894Z,100721.77
2022-10-22T00:54:15.320Z,100719.88
2022-10-22T00:54:45.747Z,100720.02
2022-10-22T00:55:16.170Z,100727.36
2022-10-22T00:55:46.590Z,100724.66
2022-10-22T00:56:17.013Z,100729.21
2022-10-22T00:56:47.434Z,100728.59
2022-10-22T00:57:17.888Z,100731.00
2022-10-22T00:57:48.330Z,100733.03
2022-10-22T00:58:18.782Z,100733.38
2022-10-22T00:58:49.213Z,100739.10
2022-10-22T00:59:19.665Z,100736.62
2022-10-22T00:59:50.066Z,100738.16
2022-10-22T01:00:20.488Z,100740.00
2022-10-22T01:00:50.988Z,100737.52
2022-10-22T01:01:21.617Z,100737.82
2022-10-22T01:01:52.068Z,100741.62
2022-10-22T01:02:22.493Z,100740.79
2022-10-22T01:02:52.924Z,100737.56
2022-10-22T01:03:23.340Z,100735.55
2022-10-22T01:03:53.762Z,100736.31
2022-10-22T01:04:24.185Z,100732.66
2022-10-22T01:04:54.622Z,100737.50
2022-10-22T01:05:25.265Z,100740.15
2022-10-22T01:05:55.718Z,100736.64
2022-10-22T01:06:26.136Z,100742.67
2022-10-22T01:06:56.562Z,100741.52
2022-10-22T01:07:27.014Z,100741.40
2022-10-22T01:07:57.456Z,100744.30
2022-10-22T01:08:27.871Z,100742.12
2022-10-22T01:08:58.431Z,100743.00
2022-10-22T01:09:28.803Z,100745.15
2022-10-22T01:09:59.247Z,100742.11
2022-10-22T01:10:29.676Z,100742.09
2022-10-22T01:11:00.098Z,100745.56
2022-10-22T01:11:30.524Z,100741.89
2022-10-22T01:12:00.961Z,100741.83
2022-10-22T01:12:31.382Z,100746.34
2022-10-22T01:13:01.803Z,100746.73
2022-10-22T01:13:32.224Z,100749.78
2022-10-22T01:14:02.640Z,100753.52
2022-10-22T01:14:33.094Z,100750.74
2022-10-22T01:15:03.524Z,100755.09
2022-10-22T01:15:33.962Z,100759.93
2022-10-22T01:16:04.386Z,100760.35
2022-10-22T01:16:34.805Z,100756.48
2022-10-22T01:17:05.233Z,100762.20
2022-10-22T01:17:35.662Z,100762.25
2022-10-22T01:18:06.085Z,100761.57
2022-10-22T01:18:36.507Z,100761.56
2022-10-22T01:19:06.934Z,100759.05
2022-10-22T01:19:37.353Z,100759.36
2022-10-22T01:20:07.816Z,100756.14
2022-10-22T01:20:38.246Z,100754.52
2022-10-22T01:21:08.672Z,100750.68
2022-10-22T01:21:39.092Z,100753.05
2022-10-22T01:22:09.550Z,100751.88
2022-10-22T01:22:39.965Z,100743.83
2022-10-22T01:23:10.389Z,100742.80
2022-10-22T01:23:40.823Z,100738.92
2022-10-22T01:24:11.244Z,100737.05
2022-10-22T01:24:41.666Z,100736.66
2022-10-22T01:25:12.119Z,100736.62
2022-10-22T01:25:42.547Z,100740.01
2022-10-22T01:26:13.054Z,100739.42
2022-10-22T01:26:43.486Z,100740.49
2022-10-22T01:27:13.917Z,100740.66
2022-10-22T01:27:44.338Z,100742.12
2022-10-22T01:28:14.763Z,100740.79
2022-10-22T01:28:45.184Z,100740.16
2022-10-22T01:29:15.607Z,100739.52
2022-10-22T01:29:46.052Z,100738.52
2022-10-22T01:30:16.780Z,100740.03
2022-10-22T01:30:47.213Z,100735.79
2022-10-22T01:31:17.635Z,100735.11
2022-10-22T01:31:48.056Z,100736.44
2022-10-22T01:32:18.480Z,100737.75
2022-10-22T01:32:48.904Z,100732.05
2022-10-22T01:33:19.340Z,100731.82
2022-10-22T01:33:49.770Z,100728.80
2022-10-22T01:34:20.192Z,100729.48
2022-10-22T01:34:50.613Z,100730.82
2022-10-22T01:35:21.083Z,100730.48
2022-10-22T01:35:51.468Z,100732.79
2022-10-22T01:36:21.887Z,100733.97
2022-10-22T01:36:52.310Z,100732.14
2022-10-22T01:37:22.771Z,100735.97
2022-10-22T01:37:53.198Z,100734.95
2022-10-22T01:38:23.620Z,100735.77
2022-10-22T01:38:54.043Z,100737.44
2022-10-22T01:39:24.464Z,100737.14
2022-10-22T01:39:54.887Z,100738.64
2022-10-22T01:40:25.332Z,100738.97
2022-10-22T01:40:55.785Z,100738.81
2022-10-22T01:41:26.206Z,100742.52
2022-10-22T01:41:57.521Z,100741.05
2022-10-22T01:42:27.955Z,100740.62
2022-10-22T01:42:58.380Z,100740.15
2022-10-22T01:43:28.800Z,100742.02
2022-10-22T01:43:59.221Z,100738.98
2022-10-22T01:44:29.746Z,100743.30
2022-10-22T01:45:00.144Z,100740.23
2022-10-22T01:45:30.574Z,100738.75
2022-10-22T01:46:01.010Z,100737.75
2022-10-22T01:46:31.430Z,100735.23
2022-10-22T01:47:01.852Z,100733.82
2022-10-22T01:47:32.270Z,100732.79
2022-10-22T01:48:02.698Z,100733.61
2022-10-22T01:48:33.120Z,100727.29
2022-10-22T01:49:03.537Z,100728.34
2022-10-22T01:49:33.959Z,100730.25
2022-10-22T01:50:04.408Z,100728.77
2022-10-22T01:50:34.868Z,100728.14
2022-10-22T01:51:05.350Z,100730.89
2022-10-22T01:51:35.773Z,100732.02
2022-10-22T01:52:06.196Z,100735.36
2022-10-22T01:52:36.646Z,100735.47
2022-10-22T01:53:07.053Z,100738.45
2022-10-22T01:53:37.522Z,100739.64
2022-10-22T01:54:08.050Z,100741.50
2022-10-22T01:54:38.913Z,100740.61
2022-10-22T01:55:09.341Z,100739.30
2022-10-22T01:55:39.775Z,100739.58
2022-10-22T01:56:10.198Z,100737.90
2022-10-22T01:56:40.633Z,100737.07
2022-10-22T01:57:11.054Z,100735.28
2022-10-22T01:57:41.849Z,100734.97
2022-10-22T01:58:12.482Z,100737.15
2022-10-22T01:58:42.903Z,100737.61
2022-10-22T01:59:13.331Z,100740.64
2022-10-22T01:59:43.751Z,100738.47
2022-10-22T02:00:14.203Z,100735.62
2022-10-22T02:00:44.677Z,100738.68
2022-10-22T02:01:15.054Z,100738.17
2022-10-22T02:01:45.475Z,100738.76
2022-10-22T02:02:15.897Z,100736.67
2022-10-22T02:03:19.846Z,100739.34
2022-10-22T02:03:52.050Z,100742.20
2022-10-22T02:04:22.473Z,100744.20
2022-10-22T02:04:52.904Z,100746.39
2022-10-22T02:05:23.318Z,100745.89
2022-10-22T02:05:53.772Z,100742.86
2022-10-22T02:06:24.193Z,100748.83
2022-10-22T02:06:54.614Z,100750.50
2022-10-22T02:07:25.209Z,100747.67
2022-10-22T02:07:55.639Z,100750.09
2022-10-22T02:08:26.054Z,100748.28
2022-10-22T02:08:56.562Z,100752.50
2022-10-22T02:09:26.967Z,100750.66
2022-10-22T02:09:57.403Z,100753.16
2022-10-22T02:10:27.842Z,100754.61
2022-10-22T02:10:58.280Z,100754.08
2022-10-22T02:11:28.727Z,100755.38
2022-10-22T02:11:59.211Z,100754.57
2022-10-22T02:12:29.580Z,100757.12
2022-10-22T02:13:00.006Z,100753.13
2022-10-22T02:13:30.438Z,100755.45
2022-10-22T02:14:00.886Z,100759.95
2022-10-22T02:14:31.315Z,100756.96
2022-10-22T02:15:01.735Z,100753.58
2022-10-22T02:15:32.194Z,100752.53
2022-10-22T02:16:02.606Z,100754.27
2022-10-22T02:16:33.029Z,100748.13
2022-10-22T02:17:03.453Z,100751.49
2022-10-22T02:17:33.887Z,100749.83
2022-10-22T02:18:04.296Z,100752.00
2022-10-22T02:18:36.469Z,100749.98
2022-10-22T02:19:09.135Z,100748.47
2022-10-22T02:19:39.557Z,100751.61
2022-10-22T02:20:09.978Z,100750.26
2022-10-22T02:20:40.398Z,100751.42
2022-10-22T02:21:10.833Z,100750.77
2022-10-22T02:21:41.268Z,100750.77
2022-10-22T02:22:11.686Z,100748.76
2022-10-22T02:22:42.636Z,100750.78
2022-10-22T02:23:13.240Z,100747.40
2022-10-22T02:23:43.665Z,100744.56
2022-10-22T02:24:14.096Z,100742.69
2022-10-22T02:24:44.535Z,100741.71
2022-10-22T02:25:14.966Z,100744.18
2022-10-22T02:25:45.413Z,100741.34
2022-10-22T02:26:15.871Z,100742.86
2022-10-22T02:26:46.295Z,100738.69
2022-10-22T02:27:16.909Z,100742.36
2022-10-22T02:27:47.364Z,100741.79
2022-10-22T02:28:17.778Z,100740.41
2022-10-22T02:28:48.207Z,100739.74
2022-10-22T02:29:18.628Z,100738.72
2022-10-22T02:29:49.050Z,100738.75
2022-10-22T02:30:19.475Z,100737.65
2022-10-22T02:30:49.914Z,100739.33
2022-10-22T02:31:20.349Z,100740.82
2022-10-22T02:31:50.781Z,100743.16
2022-10-22T02:32:21.201Z,100744.15
2022-10-22T02:32:51.624Z,100741.28
2022-10-22T02:33:22.050Z,100741.91
2022-10-22T02:33:52.471Z,100744.09
2022-10-22T02:34:22.896Z,100738.73
2022-10-22T02:34:53.317Z,100738.04
2022-10-22T02:35:23.751Z,100741.73
2022-10-22T02:35:54.164Z,100742.78
2022-10-22T02:36:24.606Z,100739.27
2022-10-22T02:36:55.025Z,100740.83
2022-10-22T02:37:25.446Z,100740.53
2022-10-22T02:37:55.868Z,100745.03
2022-10-22T02:38:26.296Z,100740.00
2022-10-22T02:38:56.735Z,100738.98
2022-10-22T02:39:27.146Z,100744.84
2022-10-22T02:39:57.593Z,100741.34
2022-10-22T02:40:28.029Z,100742.83
2022-10-22T02:40:58.437Z,100745.70
2022-10-22T02:41:28.876Z,100746.23
2022-10-22T02:41:59.319Z,100743.55
2022-10-22T02:42:29.746Z,100743.55
2022-10-22T02:43:00.173Z,100741.69
2022-10-22T02:43:30.599Z,100746.74
2022-10-22T02:44:01.056Z,100744.27
2022-10-22T02:44:31.448Z,100744.17
2022-10-22T02:45:01.868Z,100745.64
2022-10-22T02:45:32.316Z,100744.41
2022-10-22T02:46:02.762Z,100749.56
2022-10-22T02:46:33.207Z,100747.41
2022-10-22T02:47:03.627Z,100747.12
2022-10-22T02:47:34.067Z,100748.30
2022-10-22T02:48:04.491Z,100747.80
2022-10-22T02:48:34.926Z,100746.61
2022-10-22T02:49:05.357Z,100748.55
2022-10-22T02:49:35.791Z,100745.37
2022-10-22T02:50:09.390Z,100749.34
2022-10-22T02:50:40.779Z,100746.16
2022-10-22T02:51:11.201Z,100746.14
2022-10-22T02:51:41.636Z,100745.80
2022-10-22T02:52:12.056Z,100750.02
2022-10-22T02:52:42.914Z,100749.91
2022-10-22T02:53:13.564Z,100751.39
2022-10-22T02:53:43.986Z,100750.72
2022-10-22T02:54:14.406Z,100751.17
2022-10-22T02:54:44.832Z,100749.30
2022-10-22T02:55:15.253Z,100750.52
2022-10-22T02:55:45.694Z,100750.23
2022-10-22T02:56:16.121Z,100749.56
2022-10-22T02:56:46.562Z,100750.80
2022-10-22T02:57:17.050Z,100752.67
2022-10-22T02:57:47.449Z,100755.52
2022-10-22T02:58:17.911Z,100753.95
2022-10-22T02:58:48.333Z,100755.78
2022-10-22T02:59:18.762Z,100753.45
2022-10-22T02:59:49.208Z,100758.16
2022-10-22T03:00:19.641Z,100756.32
2022-10-22T03:00:50.144Z,100756.15
2022-10-22T03:01:20.614Z,100756.03
2022-10-22T03:01:51.000Z,100755.67
2022-10-22T03:02:21.433Z,100756.13
2022-10-22T03:02:51.857Z,100752.58
2022-10-22T03:03:22.337Z,100752.71
2022-10-22T03:03:52.832Z,100750.86
2022-10-22T03:04:23.275Z,100751.50
2022-10-22T03:04:53.696Z,100748.62
2022-10-22T03:05:24.120Z,100749.45
2022-10-22T03:05:54.540Z,100748.10
2022-10-22T03:06:55.543Z,100746.26
2022-10-22T03:07:25.974Z,100742.61
2022-10-22T03:07:56.397Z,100741.45
2022-10-22T03:08:26.833Z,100743.81
2022-10-22T03:08:57.313Z,100739.61
2022-10-22T03:09:27.682Z,100741.61
2022-10-22T03:09:58.103Z,100742.12
2022-10-22T03:10:28.525Z,100740.10
2022-10-22T03:10:58.976Z,100741.50
2022-10-22T03:11:29.391Z,100737.72
2022-10-22T03:11:59.839Z,100740.25
2022-10-22T03:12:30.317Z,100741.26
2022-10-22T03:13:00.749Z,100739.11
2022-10-22T03:13:31.170Z,100739.78
2022-10-22T03:14:01.604Z,100743.98
2022-10-22T03:14:32.018Z,100741.73
2022-10-22T03:15:02.441Z,100742.36
2022-10-22T03:15:32.924Z,100741.03
2022-10-22T03:16:03.363Z,100740.06
2022-10-22T03:16:33.802Z,100738.27
2022-10-22T03:17:04.219Z,100739.27
2022-10-22T03:17:34.644Z,100739.44
2022-10-22T03:18:05.063Z,100737.38
2022-10-22T03:18:35.498Z,100739.72
2022-10-22T03:19:05.930Z,100735.87
2022-10-22T03:19:36.352Z,100734.66
2022-10-22T03:20:06.773Z,100737.14
2022-10-22T03:20:37.196Z,100734.66
2022-10-22T03:21:07.616Z,100736.50
2022-10-22T03:21:38.038Z,100734.98
2022-10-22T03:22:08.470Z,100731.29
2022-10-22T03:22:38.896Z,100733.60
2022-10-22T03:23:09.334Z,100737.16
2022-10-22T03:23:39.750Z,100732.86
2022-10-22T03:24:10.176Z,100732.52
2022-10-22T03:24:40.597Z,100731.88
2022-10-22T03:25:11.018Z,100731.04
2022-10-22T03:25:41.444Z,100729.34
2022-10-22T03:26:11.866Z,100726.98
2022-10-22T03:26:42.287Z,100732.00
2022-10-22T03:27:12.728Z,100729.10
2022-10-22T03:27:43.452Z,100729.61
2022-10-22T03:28:13.902Z,100730.70
2022-10-22T03:28:44.325Z,100732.06
2022-10-22T03:29:14.750Z,100730.95
2022-10-22T03:29:45.170Z,100732.86
2022-10-22T03:30:15.595Z,100732.52
2022-10-22T03:30:46.020Z,100730.97
2022-10-22T03:31:16.441Z,100735.47
2022-10-22T03:31:46.884Z,100734.80
2022-10-22T03:32:17.296Z,100735.95
2022-10-22T03:32:47.723Z,100734.23
2022-10-22T03:33:18.153Z,100733.28
2022-10-22T03:33:48.583Z,100735.82
2022-10-22T03:34:19.008Z,100732.39
2022-10-22T03:34:49.484Z,100734.06
2022-10-22T03:35:19.869Z,100733.55
2022-10-22T03:35:50.302Z,100734.52
2022-10-22T03:36:20.726Z,100734.62
2022-10-22T03:36:51.146Z,100734.12
2022-10-22T03:37:21.579Z,100734.33
2022-10-22T03:37:52.006Z,100734.19
2022-10-22T03:38:22.433Z,100736.81
2022-10-22T03:38:52.857Z,100737.30
2022-10-22T03:39:23.282Z,100735.47
2022-10-22T03:39:53.705Z,100739.10
2022-10-22T03:40:24.126Z,100739.28
2022-10-22T03:40:54.549Z,100737.30
2022-10-22T03:41:24.976Z,100738.81
2022-10-22T03:41:55.399Z,100738.81
2022-10-22T03:42:25.835Z,100739.44
2022-10-22T03:42:56.256Z,100741.66
2022-10-22T03:43:26.680Z,100737.38
2022-10-22T03:43:57.103Z,100740.58
2022-10-22T03:44:27.531Z,100740.58
2022-10-22T03:44:57.946Z,100737.58
2022-10-22T03:45:28.420Z,100737.09
2022-10-22T03:45:58.833Z,100738.39
2022-10-22T03:46:29.253Z,100738.72
2022-10-22T03:47:02.459Z,100739.39
2022-10-22T03:47:33.270Z,100741.58
2022-10-22T03:48:03.699Z,100742.22
2022-10-22T03:48:34.146Z,100742.76
2022-10-22T03:49:04.573Z,100745.45
2022-10-22T03:49:35.000Z,100743.12
2022-10-22T03:50:05.444Z,100745.28
2022-10-22T03:50:35.869Z,100744.41
2022-10-22T03:51:06.303Z,100744.77
2022-10-22T03:51:36.700Z,100745.95
2022-10-22T03:52:07.132Z,100747.28
2022-10-22T03:52:37.583Z,100746.94
2022-10-22T03:53:08.004Z,100746.41
2022-10-22T03:53:38.436Z,100747.28
2022-10-22T03:54:08.861Z,100752.16
2022-10-22T03:55:09.642Z,100748.03
2022-10-22T03:55:40.062Z,100750.86
2022-10-22T03:56:10.489Z,100749.91
2022-10-22T03:56:40.908Z,100752.23
2022-10-22T03:57:11.329Z,100751.53
2022-10-22T03:57:42.021Z,100749.65
2022-10-22T03:58:12.575Z,100752.12
2022-10-22T03:58:42.999Z,100752.80
2022-10-22T03:59:13.423Z,100751.83
2022-10-22T03:59:43.856Z,100751.19
2022-10-22T04:00:14.280Z,100754.70
2022-10-22T04:00:44.816Z,100754.88
2022-10-22T04:01:15.341Z,100753.50
2022-10-22T04:01:45.728Z,100759.22
2022-10-22T04:02:16.169Z,100756.72
2022-10-22T04:02:46.603Z,100758.73
2022-10-22T04:03:17.028Z,100757.27
2022-10-22T04:03:47.449Z,100757.27
2022-10-22T04:04:17.881Z,100761.92
2022-10-22T04:04:48.305Z,100755.20
2022-10-22T04:05:18.744Z,100758.68
2022-10-22T04:05:49.166Z,100756.75
2022-10-22T04:06:19.593Z,100758.75
2022-10-22T04:06:50.013Z,100763.45
2022-10-22T04:07:20.438Z,100763.80
2022-10-22T04:07:50.868Z,100761.20
2022-10-22T04:08:21.294Z,100760.88
2022-10-22T04:08:51.780Z,100766.28
2022-10-22T04:09:22.156Z,100764.42
2022-10-22T04:09:52.591Z,100762.92
2022-10-22T04:10:23.009Z,100763.71
2022-10-22T04:10:53.430Z,100764.05
2022-10-22T04:11:23.852Z,100764.27
2022-10-22T04:11:54.283Z,100767.84
2022-10-22T04:12:24.695Z,100768.34
2022-10-22T04:12:55.132Z,100768.84
2022-10-22T04:13:25.579Z,100769.98
2022-10-22T04:13:56.004Z,100769.52
2022-10-22T04:14:26.427Z,100770.20
2022-10-22T04:14:56.910Z,100773.14
2022-10-22T04:15:27.305Z,100772.45
2022-10-22T04:15:57.739Z,100773.14
2022-10-22T04:16:30.016Z,100776.16
2022-10-22T04:17:01.006Z,100777.66
2022-10-22T04:17:31.448Z,100778.72
2022-10-22T04:18:01.876Z,100779.89
2022-10-22T04:18:32.289Z,100779.23
2022-10-22T04:19:02.881Z,100780.90
2022-10-22T04:19:33.302Z,100781.74
2022-10-22T04:20:03.729Z,100783.27
2022-10-22T04:20:34.172Z,100782.44
2022-10-22T04:21:04.594Z,100782.12
2022-10-22T04:21:35.019Z,100782.45
2022-10-22T04:22:05.442Z,100782.66
2022-10-22T04:22:35.863Z,100789.94
2022-10-22T04:23:06.296Z,100789.52
2022-10-22T04:23:36.719Z,100792.04
2022-10-22T04:24:07.143Z,100791.22
2022-10-22T04:24:37.642Z,100790.91
2022-10-22T04:25:08.008Z,100791.38
2022-10-22T04:25:38.429Z,100790.91
2022-10-22T04:26:08.852Z,100793.23
2022-10-22T04:26:39.277Z,100792.53
2022-10-22T04:27:09.700Z,100792.23
2022-10-22T04:27:40.432Z,100795.86
2022-10-22T04:28:10.903Z,100792.41
2022-10-22T04:28:41.328Z,100795.75
2022-10-22T04:29:15.106Z,100793.55
2022-10-22T04:29:46.692Z,100789.82
2022-10-22T04:30:17.113Z,100786.75
2022-10-22T04:30:47.545Z,100790.44
2022-10-22T04:31:17.972Z,100788.73
2022-10-22T04:31:48.391Z,100792.45
2022-10-22T04:32:18.825Z,100788.83
2022-10-22T04:32:49.268Z,100792.53
2022-10-22T04:33:19.683Z,100792.07
2022-10-22T04:33:50.116Z,100793.10
2022-10-22T04:34:20.543Z,100792.31
2022-10-22T04:34:50.974Z,100790.41
2022-10-22T04:35:21.433Z,100793.21
2022-10-22T04:35:51.819Z,100796.38
2022-10-22T04:36:22.246Z,100790.33
2022-10-22T04:36:52.673Z,100793.34
2022-10-22T04:37:23.096Z,100795.75
2022-10-22T04:37:53.519Z,100796.44
2022-10-22T04:38:23.961Z,100789.88
2022-10-22T04:38:54.380Z,100788.19
2022-10-22T04:39:24.804Z,100787.35
2022-10-22T04:39:57.969Z,100790.17
2022-10-22T04:40:28.695Z,100787.30
2022-10-22T04:40:59.117Z,100782.92
2022-10-22T04:41:29.553Z,100778.84
2022-10-22T04:41:59.954Z,100783.67
2022-10-22T04:42:30.386Z,100781.15
2022-10-22T04:43:00.808Z,100779.31
2022-10-22T04:43:31.245Z,100777.81
2022-10-22T04:44:01.682Z,100777.72
2022-10-22T04:44:32.146Z,100777.97
2022-10-22T04:45:02.628Z,100775.33
2022-10-22T04:45:33.051Z,100776.16
2022-10-22T04:46:03.495Z,100773.65
2022-10-22T04:46:33.897Z,100772.95
2022-10-22T04:47:04.320Z,100779.36
2022-10-22T04:47:34.744Z,100774.12
2022-10-22T04:48:05.197Z,100775.16
2022-10-22T04:48:35.617Z,100771.79
2022-10-22T04:49:06.040Z,100775.81
2022-10-22T04:49:36.472Z,100772.11
2022-10-22T04:50:06.891Z,100771.45
2022-10-22T04:50:37.313Z,100772.52
2022-10-22T04:51:07.758Z,100770.21
2022-10-22T04:51:38.190Z,100772.71
2022-10-22T04:52:08.602Z,100766.65
2022-10-22T04:52:39.025Z,100765.08
2022-10-22T04:53:09.447Z,100764.55
2022-10-22T04:53:39.884Z,100765.41
2022-10-22T04:54:10.303Z,100762.45
2022-10-22T04:54:40.725Z,100762.45
2022-10-22T04:55:11.150Z,100766.57
2022-10-22T04:55:41.583Z,100764.70
2022-10-22T04:56:12.005Z,100762.53
2022-10-22T04:56:42.435Z,100764.18
2022-10-22T04:57:12.864Z,100763.64
2022-10-22T04:57:43.539Z,100766.52
2022-10-22T04:58:13.997Z,100765.80
2022-10-22T04:58:44.460Z,100766.63
2022-10-22T04:59:14.878Z,100765.82
2022-10-22T04:59:45.308Z,100769.77
2022-10-22T05:00:15.733Z,100767.61
2022-10-22T05:00:46.180Z,100766.97
2022-10-22T05:01:16.689Z,100767.11
2022-10-22T05:01:47.133Z,100770.66
2022-10-22T05:02:17.553Z,100768.77
2022-10-22T05:02:47.988Z,100769.24
2022-10-22T05:03:18.417Z,100769.04
2022-10-22T05:03:48.844Z,100769.11
2022-10-22T05:04:19.264Z,100770.95
2022-10-22T05:04:49.698Z,100774.31
2022-10-22T05:05:20.117Z,100767.47
2022-10-22T05:05:50.548Z,100771.12
2022-10-22T05:06:21.040Z,100771.70
2022-10-22T05:06:51.431Z,100772.52
2022-10-22T05:07:21.853Z,100773.03
2022-10-22T05:07:52.277Z,100771.98
2022-10-22T05:08:22.701Z,100772.14
2022-10-22T05:08:53.164Z,100775.31
2022-10-22T05:09:23.561Z,100773.63
2022-10-22T05:09:53.988Z,100778.50
2022-10-22T05:10:24.414Z,100776.91
2022-10-22T05:10:54.839Z,100775.41
2022-10-22T05:11:25.263Z,100781.30
2022-10-22T05:11:55.692Z,100779.09
2022-10-22T05:12:26.125Z,100777.23
2022-10-22T05:12:56.542Z,100783.30
2022-10-22T05:13:26.968Z,100783.83
2022-10-22T05:13:57.406Z,100784.81
2022-10-22T05:14:27.901Z,100779.14
2022-10-22T05:14:58.253Z,100786.38
2022-10-22T05:15:28.683Z,100785.57
2022-10-22T05:15:59.112Z,100785.88
2022-10-22T05:16:29.539Z,100787.56
2022-10-22T05:16:59.962Z,100784.70
2022-10-22T05:17:30.385Z,100786.77
2022-10-22T05:18:00.805Z,100788.94
2022-10-22T05:18:31.253Z,100787.20
2022-10-22T05:19:01.675Z,100788.84
2022-10-22T05:19:32.112Z,100785.27
2022-10-22T05:20:02.524Z,100784.21
2022-10-22T05:20:32.952Z,100783.94
2022-10-22T05:21:03.382Z,100787.00
2022-10-22T05:21:33.804Z,100789.41
2022-10-22T05:22:04.233Z,100786.91
2022-10-22T05:22:34.658Z,100788.05
2022-10-22T05:23:05.078Z,100784.77
2022-10-22T05:23:35.508Z,100790.33
2022-10-22T05:24:05.946Z,100784.94
2022-10-22T05:24:36.369Z,100788.97
2022-10-22T05:25:06.788Z,100788.62
2022-10-22T05:25:37.208Z,100790.70
2022-10-22T05:26:08.057Z,100793.55
2022-10-22T05:26:38.481Z,100791.66
2022-10-22T05:27:09.014Z,100791.18
2022-10-22T05:27:39.739Z,100793.34
2022-10-22T05:28:10.384Z,100795.69
2022-10-22T05:28:40.805Z,100790.35
2022-10-22T05:29:11.249Z,100792.53
2022-10-22T05:29:41.673Z,100793.69
2022-10-22T05:30:12.113Z,100794.84
2022-10-22T05:30:42.538Z,100796.03
2022-10-22T05:31:12.974Z,100795.05
2022-10-22T05:31:43.392Z,100794.38
2022-10-22T05:32:13.838Z,100792.34
2022-10-22T05:32:44.280Z,100798.86
2022-10-22T05:33:14.704Z,100794.15
2022-10-22T05:33:45.147Z,100796.02
2022-10-22T05:34:15.561Z,100798.41
2022-10-22T05:34:45.997Z,100799.91
2022-10-22T05:35:16.414Z,100795.88
2022-10-22T05:35:46.961Z,100796.02
2022-10-22T05:36:17.382Z,100796.99
2022-10-22T05:36:47.830Z,100796.48
2022-10-22T05:37:18.253Z,100797.53
2022-10-22T05:37:48.700Z,100794.84
2022-10-22T05:38:19.112Z,100795.14
2022-10-22T05:38:49.536Z,100794.15
2022-10-22T05:39:19.984Z,100791.92
2022-10-22T05:39:57.581Z,100791.70
2022-10-22T05:40:30.832Z,100794.09
2022-10-22T05:41:01.055Z,100796.02
2022-10-22T05:41:31.478Z,100793.52
2022-10-22T05:42:01.904Z,100790.33
2022-10-22T05:42:32.328Z,100794.20
2022-10-22T05:43:02.749Z,100792.84
2022-10-22T05:43:33.181Z,100792.67
2022-10-22T05:44:03.604Z,100792.00
2022-10-22T05:44:34.047Z,100795.53
2022-10-22T05:45:04.470Z,100797.55
2022-10-22T05:45:34.894Z,100795.70
2022-10-22T05:46:05.322Z,100795.30
2022-10-22T05:46:35.748Z,100795.80
2022-10-22T05:47:06.173Z,100801.83
2022-10-22T05:47:36.604Z,100795.38
2022-10-22T05:48:07.038Z,100794.39
2022-10-22T05:48:37.467Z,100798.13
2022-10-22T05:49:07.902Z,100799.25
2022-10-22T05:49:38.322Z,100800.25
2022-10-22T05:50:08.748Z,100802.45